sensor_id;sensor_type;location;lat;lon;timestamp;P1;durP1;ratioP1;P2;durP2;ratioP2
76765;SDS011;65707;52.362;6.588;2023-11-19T00:00:51;35.78;;;10.50;;
76765;SDS011;65707;52.362;6.588;2023-11-19T00:03:18;39.25;;;12.18;;
76765;SDS011;65707;52.362;6.588;2023-11-19T00:05:45;40.10;;;11.02;;
76765;SDS011;65707;52.362;6.588;2023-11-19T00:08:14;40.40;;;11.32;;
76765;SDS011;65707;52.362;6.588;2023-11-19T00:10:41;42.67;;;12.27;;
76765;SDS011;65707;52.362;6.588;2023-11-19T00:13:09;39.40;;;11.27;;
76765;SDS011;65707;52.362;6.588;2023-11-19T00:15:36;44.20;;;11.95;;
76765;SDS011;65707;52.362;6.588;2023-11-19T00:18:03;43.05;;;11.23;;
76765;SDS011;65707;52.362;6.588;2023-11-19T00:20:30;42.58;;;12.00;;
76765;SDS011;65707;52.362;6.588;2023-11-19T00:22:57;46.58;;;11.48;;
76765;SDS011;65707;52.362;6.588;2023-11-19T00:25:25;39.40;;;12.15;;
76765;SDS011;65707;52.362;6.588;2023-11-19T00:27:52;48.78;;;12.25;;
76765;SDS011;65707;52.362;6.588;2023-11-19T00:30:21;51.53;;;12.57;;
76765;SDS011;65707;52.362;6.588;2023-11-19T00:32:48;44.35;;;11.65;;
76765;SDS011;65707;52.362;6.588;2023-11-19T00:35:14;38.95;;;10.77;;
76765;SDS011;65707;52.362;6.588;2023-11-19T00:37:41;43.75;;;12.38;;
76765;SDS011;65707;52.362;6.588;2023-11-19T00:40:10;46.60;;;13.07;;
76765;SDS011;65707;52.362;6.588;2023-11-19T00:42:39;41.22;;;12.40;;
76765;SDS011;65707;52.362;6.588;2023-11-19T00:45:06;35.90;;;10.68;;
76765;SDS011;65707;52.362;6.588;2023-11-19T00:47:35;45.92;;;12.32;;
76765;SDS011;65707;52.362;6.588;2023-11-19T00:50:01;40.25;;;12.05;;
76765;SDS011;65707;52.362;6.588;2023-11-19T00:52:29;41.05;;;11.60;;
76765;SDS011;65707;52.362;6.588;2023-11-19T00:54:55;47.83;;;12.05;;
76765;SDS011;65707;52.362;6.588;2023-11-19T00:57:22;43.33;;;12.25;;
76765;SDS011;65707;52.362;6.588;2023-11-19T00:59:53;38.22;;;11.18;;
76765;SDS011;65707;52.362;6.588;2023-11-19T01:02:19;37.65;;;10.65;;
76765;SDS011;65707;52.362;6.588;2023-11-19T01:04:46;34.00;;;11.02;;
76765;SDS011;65707;52.362;6.588;2023-11-19T01:07:13;35.55;;;10.52;;
76765;SDS011;65707;52.362;6.588;2023-11-19T01:09:41;37.72;;;11.05;;
76765;SDS011;65707;52.362;6.588;2023-11-19T01:12:08;41.42;;;10.90;;
76765;SDS011;65707;52.362;6.588;2023-11-19T01:14:36;35.55;;;11.25;;
76765;SDS011;65707;52.362;6.588;2023-11-19T01:17:04;35.10;;;10.45;;
76765;SDS011;65707;52.362;6.588;2023-11-19T01:19:31;33.35;;;10.60;;
76765;SDS011;65707;52.362;6.588;2023-11-19T01:21:59;33.72;;;10.10;;
76765;SDS011;65707;52.362;6.588;2023-11-19T01:24:26;37.72;;;10.98;;
76765;SDS011;65707;52.362;6.588;2023-11-19T01:26:53;32.55;;;10.05;;
76765;SDS011;65707;52.362;6.588;2023-11-19T01:29:20;34.33;;;9.73;;
76765;SDS011;65707;52.362;6.588;2023-11-19T01:31:47;30.83;;;8.88;;
76765;SDS011;65707;52.362;6.588;2023-11-19T01:34:15;35.97;;;9.70;;
76765;SDS011;65707;52.362;6.588;2023-11-19T01:36:42;32.35;;;8.82;;
76765;SDS011;65707;52.362;6.588;2023-11-19T01:39:09;24.55;;;7.45;;
76765;SDS011;65707;52.362;6.588;2023-11-19T01:41:36;31.10;;;8.25;;
76765;SDS011;65707;52.362;6.588;2023-11-19T01:44:04;30.58;;;8.02;;
76765;SDS011;65707;52.362;6.588;2023-11-19T01:46:32;32.72;;;7.18;;
76765;SDS011;65707;52.362;6.588;2023-11-19T01:49:00;29.65;;;7.68;;
76765;SDS011;65707;52.362;6.588;2023-11-19T01:51:30;24.92;;;7.75;;
76765;SDS011;65707;52.362;6.588;2023-11-19T01:53:57;29.98;;;6.80;;
76765;SDS011;65707;52.362;6.588;2023-11-19T01:56:25;24.27;;;5.88;;
76765;SDS011;65707;52.362;6.588;2023-11-19T01:58:54;28.33;;;5.03;;
76765;SDS011;65707;52.362;6.588;2023-11-19T02:01:21;23.05;;;5.32;;
76765;SDS011;65707;52.362;6.588;2023-11-19T02:03:48;24.17;;;4.72;;
76765;SDS011;65707;52.362;6.588;2023-11-19T02:06:15;21.05;;;5.40;;
76765;SDS011;65707;52.362;6.588;2023-11-19T02:08:44;26.92;;;5.57;;
76765;SDS011;65707;52.362;6.588;2023-11-19T02:11:11;19.02;;;4.05;;
76765;SDS011;65707;52.362;6.588;2023-11-19T02:13:38;24.00;;;4.47;;
76765;SDS011;65707;52.362;6.588;2023-11-19T02:16:06;28.75;;;4.88;;
76765;SDS011;65707;52.362;6.588;2023-11-19T02:18:34;31.30;;;4.85;;
76765;SDS011;65707;52.362;6.588;2023-11-19T02:21:01;24.83;;;4.93;;
76765;SDS011;65707;52.362;6.588;2023-11-19T02:23:30;20.13;;;4.22;;
76765;SDS011;65707;52.362;6.588;2023-11-19T02:26:05;23.42;;;4.32;;
76765;SDS011;65707;52.362;6.588;2023-11-19T02:28:42;21.40;;;4.00;;
76765;SDS011;65707;52.362;6.588;2023-11-19T02:31:10;20.67;;;4.05;;
76765;SDS011;65707;52.362;6.588;2023-11-19T02:33:37;22.80;;;4.00;;
76765;SDS011;65707;52.362;6.588;2023-11-19T02:36:04;18.25;;;4.28;;
76765;SDS011;65707;52.362;6.588;2023-11-19T02:38:33;26.55;;;4.13;;
76765;SDS011;65707;52.362;6.588;2023-11-19T02:41:02;24.73;;;4.30;;
76765;SDS011;65707;52.362;6.588;2023-11-19T02:43:31;25.15;;;4.47;;
76765;SDS011;65707;52.362;6.588;2023-11-19T02:46:00;23.75;;;4.05;;
76765;SDS011;65707;52.362;6.588;2023-11-19T02:48:28;26.00;;;3.92;;
76765;SDS011;65707;52.362;6.588;2023-11-19T02:50:55;20.65;;;3.65;;
76765;SDS011;65707;52.362;6.588;2023-11-19T02:53:23;27.45;;;3.53;;
76765;SDS011;65707;52.362;6.588;2023-11-19T02:55:52;21.67;;;4.13;;
76765;SDS011;65707;52.362;6.588;2023-11-19T02:58:26;24.65;;;3.75;;
76765;SDS011;65707;52.362;6.588;2023-11-19T03:00:53;21.88;;;3.75;;
76765;SDS011;65707;52.362;6.588;2023-11-19T03:03:26;25.55;;;3.72;;
76765;SDS011;65707;52.362;6.588;2023-11-19T03:06:03;30.23;;;3.95;;
76765;SDS011;65707;52.362;6.588;2023-11-19T03:08:31;19.13;;;3.20;;
76765;SDS011;65707;52.362;6.588;2023-11-19T03:10:57;16.45;;;3.83;;
76765;SDS011;65707;52.362;6.588;2023-11-19T03:13:25;22.25;;;3.67;;
76765;SDS011;65707;52.362;6.588;2023-11-19T03:15:51;21.42;;;3.53;;
76765;SDS011;65707;52.362;6.588;2023-11-19T03:18:18;23.55;;;4.43;;
76765;SDS011;65707;52.362;6.588;2023-11-19T03:20:47;20.00;;;3.28;;
76765;SDS011;65707;52.362;6.588;2023-11-19T03:23:14;30.20;;;4.03;;
76765;SDS011;65707;52.362;6.588;2023-11-19T03:25:41;23.90;;;3.58;;
76765;SDS011;65707;52.362;6.588;2023-11-19T03:28:08;22.83;;;3.30;;
76765;SDS011;65707;52.362;6.588;2023-11-19T03:30:36;27.33;;;3.20;;
76765;SDS011;65707;52.362;6.588;2023-11-19T03:33:03;21.08;;;3.45;;
76765;SDS011;65707;52.362;6.588;2023-11-19T03:35:30;18.58;;;3.88;;
76765;SDS011;65707;52.362;6.588;2023-11-19T03:37:59;18.88;;;4.07;;
76765;SDS011;65707;52.362;6.588;2023-11-19T03:40:26;25.08;;;3.97;;
76765;SDS011;65707;52.362;6.588;2023-11-19T03:42:53;28.65;;;4.53;;
76765;SDS011;65707;52.362;6.588;2023-11-19T03:45:19;27.45;;;3.75;;
76765;SDS011;65707;52.362;6.588;2023-11-19T03:47:46;23.70;;;3.78;;
76765;SDS011;65707;52.362;6.588;2023-11-19T03:50:15;19.50;;;2.90;;
76765;SDS011;65707;52.362;6.588;2023-11-19T03:52:43;31.65;;;4.10;;
76765;SDS011;65707;52.362;6.588;2023-11-19T03:55:11;22.52;;;4.00;;
76765;SDS011;65707;52.362;6.588;2023-11-19T03:57:38;24.77;;;4.00;;
76765;SDS011;65707;52.362;6.588;2023-11-19T04:00:05;30.23;;;4.15;;
76765;SDS011;65707;52.362;6.588;2023-11-19T04:02:35;31.42;;;3.75;;
76765;SDS011;65707;52.362;6.588;2023-11-19T04:05:02;25.77;;;3.63;;
76765;SDS011;65707;52.362;6.588;2023-11-19T04:07:30;23.35;;;3.28;;
76765;SDS011;65707;52.362;6.588;2023-11-19T04:09:56;30.83;;;4.00;;
76765;SDS011;65707;52.362;6.588;2023-11-19T04:12:25;28.83;;;4.15;;
76765;SDS011;65707;52.362;6.588;2023-11-19T04:14:52;29.55;;;3.88;;
76765;SDS011;65707;52.362;6.588;2023-11-19T04:17:18;28.17;;;4.90;;
76765;SDS011;65707;52.362;6.588;2023-11-19T04:19:45;17.25;;;3.60;;
76765;SDS011;65707;52.362;6.588;2023-11-19T04:22:12;29.33;;;4.90;;
76765;SDS011;65707;52.362;6.588;2023-11-19T04:24:40;29.90;;;4.53;;
76765;SDS011;65707;52.362;6.588;2023-11-19T04:27:09;30.30;;;3.90;;
76765;SDS011;65707;52.362;6.588;2023-11-19T04:29:37;36.05;;;4.82;;
76765;SDS011;65707;52.362;6.588;2023-11-19T04:32:04;32.53;;;4.53;;
76765;SDS011;65707;52.362;6.588;2023-11-19T04:34:32;25.45;;;4.20;;
76765;SDS011;65707;52.362;6.588;2023-11-19T04:36:58;32.38;;;4.13;;
76765;SDS011;65707;52.362;6.588;2023-11-19T04:39:27;29.63;;;4.72;;
76765;SDS011;65707;52.362;6.588;2023-11-19T04:41:53;36.25;;;3.90;;
76765;SDS011;65707;52.362;6.588;2023-11-19T04:44:20;28.05;;;4.50;;
76765;SDS011;65707;52.362;6.588;2023-11-19T04:46:48;30.40;;;3.72;;
76765;SDS011;65707;52.362;6.588;2023-11-19T04:49:15;25.77;;;4.00;;
76765;SDS011;65707;52.362;6.588;2023-11-19T04:51:42;28.95;;;4.47;;
76765;SDS011;65707;52.362;6.588;2023-11-19T04:54:12;37.80;;;4.20;;
76765;SDS011;65707;52.362;6.588;2023-11-19T04:56:39;25.58;;;3.78;;
76765;SDS011;65707;52.362;6.588;2023-11-19T04:59:06;28.23;;;4.25;;
76765;SDS011;65707;52.362;6.588;2023-11-19T05:01:33;28.30;;;4.55;;
76765;SDS011;65707;52.362;6.588;2023-11-19T05:04:02;27.45;;;3.40;;
76765;SDS011;65707;52.362;6.588;2023-11-19T05:06:29;27.67;;;3.53;;
76765;SDS011;65707;52.362;6.588;2023-11-19T05:08:58;27.85;;;3.70;;
76765;SDS011;65707;52.362;6.588;2023-11-19T05:11:29;30.20;;;4.30;;
76765;SDS011;65707;52.362;6.588;2023-11-19T05:13:56;37.80;;;5.05;;
76765;SDS011;65707;52.362;6.588;2023-11-19T05:16:23;28.30;;;4.18;;
76765;SDS011;65707;52.362;6.588;2023-11-19T05:18:49;29.38;;;4.47;;
76765;SDS011;65707;52.362;6.588;2023-11-19T05:21:17;32.17;;;4.88;;
76765;SDS011;65707;52.362;6.588;2023-11-19T05:23:44;34.38;;;4.97;;
76765;SDS011;65707;52.362;6.588;2023-11-19T05:26:16;31.02;;;4.60;;
76765;SDS011;65707;52.362;6.588;2023-11-19T05:28:44;37.88;;;5.32;;
76765;SDS011;65707;52.362;6.588;2023-11-19T05:31:11;33.10;;;4.45;;
76765;SDS011;65707;52.362;6.588;2023-11-19T05:33:38;35.08;;;5.55;;
76765;SDS011;65707;52.362;6.588;2023-11-19T05:36:05;30.63;;;4.65;;
76765;SDS011;65707;52.362;6.588;2023-11-19T05:38:34;28.83;;;4.90;;
76765;SDS011;65707;52.362;6.588;2023-11-19T05:41:01;37.10;;;5.10;;
76765;SDS011;65707;52.362;6.588;2023-11-19T05:43:28;30.15;;;4.55;;
76765;SDS011;65707;52.362;6.588;2023-11-19T05:45:55;41.75;;;5.28;;
76765;SDS011;65707;52.362;6.588;2023-11-19T05:48:21;37.30;;;5.03;;
76765;SDS011;65707;52.362;6.588;2023-11-19T05:50:48;33.53;;;4.30;;
76765;SDS011;65707;52.362;6.588;2023-11-19T05:53:15;28.75;;;4.35;;
76765;SDS011;65707;52.362;6.588;2023-11-19T05:55:43;36.92;;;4.95;;
76765;SDS011;65707;52.362;6.588;2023-11-19T05:58:14;39.60;;;5.00;;
76765;SDS011;65707;52.362;6.588;2023-11-19T06:00:41;34.90;;;5.13;;
76765;SDS011;65707;52.362;6.588;2023-11-19T06:03:08;33.55;;;4.50;;
76765;SDS011;65707;52.362;6.588;2023-11-19T06:05:35;30.80;;;4.97;;
76765;SDS011;65707;52.362;6.588;2023-11-19T06:08:02;32.10;;;4.22;;
76765;SDS011;65707;52.362;6.588;2023-11-19T06:10:28;31.77;;;5.30;;
76765;SDS011;65707;52.362;6.588;2023-11-19T06:12:57;33.85;;;4.63;;
76765;SDS011;65707;52.362;6.588;2023-11-19T06:15:25;27.95;;;3.92;;
76765;SDS011;65707;52.362;6.588;2023-11-19T06:17:52;36.65;;;5.68;;
76765;SDS011;65707;52.362;6.588;2023-11-19T06:20:19;29.42;;;4.57;;
76765;SDS011;65707;52.362;6.588;2023-11-19T06:22:46;31.98;;;5.00;;
76765;SDS011;65707;52.362;6.588;2023-11-19T06:25:13;28.45;;;4.78;;
76765;SDS011;65707;52.362;6.588;2023-11-19T06:27:40;37.55;;;4.32;;
76765;SDS011;65707;52.362;6.588;2023-11-19T06:30:09;29.98;;;5.43;;
76765;SDS011;65707;52.362;6.588;2023-11-19T06:32:37;26.15;;;4.68;;
76765;SDS011;65707;52.362;6.588;2023-11-19T06:35:05;34.38;;;5.05;;
76765;SDS011;65707;52.362;6.588;2023-11-19T06:37:32;26.85;;;4.13;;
76765;SDS011;65707;52.362;6.588;2023-11-19T06:39:59;37.83;;;4.55;;
76765;SDS011;65707;52.362;6.588;2023-11-19T06:42:26;34.95;;;5.85;;
76765;SDS011;65707;52.362;6.588;2023-11-19T06:44:52;36.88;;;4.55;;
76765;SDS011;65707;52.362;6.588;2023-11-19T06:47:20;27.90;;;4.90;;
76765;SDS011;65707;52.362;6.588;2023-11-19T06:49:47;32.17;;;4.25;;
76765;SDS011;65707;52.362;6.588;2023-11-19T06:52:14;27.38;;;4.10;;
76765;SDS011;65707;52.362;6.588;2023-11-19T06:54:42;31.27;;;4.63;;
76765;SDS011;65707;52.362;6.588;2023-11-19T06:57:10;32.80;;;4.93;;
76765;SDS011;65707;52.362;6.588;2023-11-19T06:59:37;36.20;;;4.80;;
76765;SDS011;65707;52.362;6.588;2023-11-19T07:02:05;30.67;;;4.45;;
76765;SDS011;65707;52.362;6.588;2023-11-19T07:04:34;29.30;;;4.50;;
76765;SDS011;65707;52.362;6.588;2023-11-19T07:07:00;27.40;;;4.63;;
76765;SDS011;65707;52.362;6.588;2023-11-19T07:09:27;30.30;;;4.53;;
76765;SDS011;65707;52.362;6.588;2023-11-19T07:11:54;38.60;;;5.28;;
76765;SDS011;65707;52.362;6.588;2023-11-19T07:14:21;37.80;;;5.47;;
76765;SDS011;65707;52.362;6.588;2023-11-19T07:16:48;28.85;;;4.65;;
76765;SDS011;65707;52.362;6.588;2023-11-19T07:19:15;28.60;;;4.47;;
76765;SDS011;65707;52.362;6.588;2023-11-19T07:21:43;30.50;;;5.18;;
76765;SDS011;65707;52.362;6.588;2023-11-19T07:24:10;28.85;;;5.00;;
76765;SDS011;65707;52.362;6.588;2023-11-19T07:26:40;25.70;;;4.00;;
76765;SDS011;65707;52.362;6.588;2023-11-19T07:29:09;36.88;;;4.63;;
76765;SDS011;65707;52.362;6.588;2023-11-19T07:31:36;32.90;;;4.43;;
76765;SDS011;65707;52.362;6.588;2023-11-19T07:34:03;30.08;;;4.30;;
76765;SDS011;65707;52.362;6.588;2023-11-19T07:36:30;31.08;;;5.50;;
76765;SDS011;65707;52.362;6.588;2023-11-19T07:38:58;31.08;;;4.85;;
76765;SDS011;65707;52.362;6.588;2023-11-19T07:41:25;30.50;;;4.85;;
76765;SDS011;65707;52.362;6.588;2023-11-19T07:43:52;27.67;;;5.10;;
76765;SDS011;65707;52.362;6.588;2023-11-19T07:46:19;33.53;;;4.40;;
76765;SDS011;65707;52.362;6.588;2023-11-19T07:48:46;32.53;;;4.03;;
76765;SDS011;65707;52.362;6.588;2023-11-19T07:51:13;30.23;;;4.20;;
76765;SDS011;65707;52.362;6.588;2023-11-19T07:53:41;29.73;;;4.68;;
76765;SDS011;65707;52.362;6.588;2023-11-19T07:56:10;30.52;;;4.53;;
76765;SDS011;65707;52.362;6.588;2023-11-19T07:58:37;32.53;;;4.43;;
76765;SDS011;65707;52.362;6.588;2023-11-19T08:01:04;31.40;;;4.25;;
76765;SDS011;65707;52.362;6.588;2023-11-19T08:03:31;30.58;;;4.03;;
76765;SDS011;65707;52.362;6.588;2023-11-19T08:05:59;33.90;;;4.13;;
76765;SDS011;65707;52.362;6.588;2023-11-19T08:08:26;33.95;;;4.55;;
76765;SDS011;65707;52.362;6.588;2023-11-19T08:10:54;26.95;;;3.85;;
76765;SDS011;65707;52.362;6.588;2023-11-19T08:13:23;23.10;;;3.67;;
76765;SDS011;65707;52.362;6.588;2023-11-19T08:15:50;34.28;;;3.90;;
76765;SDS011;65707;52.362;6.588;2023-11-19T08:18:17;27.85;;;3.92;;
76765;SDS011;65707;52.362;6.588;2023-11-19T08:20:44;35.50;;;4.93;;
76765;SDS011;65707;52.362;6.588;2023-11-19T08:23:14;29.90;;;4.10;;
76765;SDS011;65707;52.362;6.588;2023-11-19T08:25:40;32.05;;;4.25;;
76765;SDS011;65707;52.362;6.588;2023-11-19T08:28:07;34.90;;;4.63;;
76765;SDS011;65707;52.362;6.588;2023-11-19T08:30:35;32.92;;;4.07;;
76765;SDS011;65707;52.362;6.588;2023-11-19T08:33:02;27.48;;;4.82;;
76765;SDS011;65707;52.362;6.588;2023-11-19T08:35:30;24.40;;;3.47;;
76765;SDS011;65707;52.362;6.588;2023-11-19T08:37:57;27.05;;;4.03;;
76765;SDS011;65707;52.362;6.588;2023-11-19T08:40:27;28.67;;;4.70;;
76765;SDS011;65707;52.362;6.588;2023-11-19T08:42:54;26.75;;;3.83;;
76765;SDS011;65707;52.362;6.588;2023-11-19T08:45:21;29.00;;;4.35;;
76765;SDS011;65707;52.362;6.588;2023-11-19T08:47:49;33.15;;;4.18;;
76765;SDS011;65707;52.362;6.588;2023-11-19T08:50:19;27.77;;;4.80;;
76765;SDS011;65707;52.362;6.588;2023-11-19T08:55:12;29.85;;;4.35;;
76765;SDS011;65707;52.362;6.588;2023-11-19T08:57:39;25.42;;;3.80;;
76765;SDS011;65707;52.362;6.588;2023-11-19T09:00:06;24.38;;;3.88;;
76765;SDS011;65707;52.362;6.588;2023-11-19T09:02:34;32.05;;;4.72;;
76765;SDS011;65707;52.362;6.588;2023-11-19T09:05:05;30.85;;;4.72;;
76765;SDS011;65707;52.362;6.588;2023-11-19T09:07:35;22.70;;;3.85;;
76765;SDS011;65707;52.362;6.588;2023-11-19T09:10:02;27.05;;;4.20;;
76765;SDS011;65707;52.362;6.588;2023-11-19T09:12:33;34.60;;;3.70;;
76765;SDS011;65707;52.362;6.588;2023-11-19T09:17:26;23.75;;;4.00;;
76765;SDS011;65707;52.362;6.588;2023-11-19T09:19:53;35.67;;;5.07;;
76765;SDS011;65707;52.362;6.588;2023-11-19T09:22:21;25.48;;;4.43;;
76765;SDS011;65707;52.362;6.588;2023-11-19T09:24:48;33.83;;;4.45;;
76765;SDS011;65707;52.362;6.588;2023-11-19T09:27:15;23.58;;;3.85;;
76765;SDS011;65707;52.362;6.588;2023-11-19T09:29:41;24.80;;;4.10;;
76765;SDS011;65707;52.362;6.588;2023-11-19T09:32:11;24.48;;;3.85;;
76765;SDS011;65707;52.362;6.588;2023-11-19T09:34:37;21.25;;;3.95;;
76765;SDS011;65707;52.362;6.588;2023-11-19T09:37:04;27.98;;;3.88;;
76765;SDS011;65707;52.362;6.588;2023-11-19T09:39:32;24.80;;;4.15;;
76765;SDS011;65707;52.362;6.588;2023-11-19T09:41:59;27.63;;;4.25;;
76765;SDS011;65707;52.362;6.588;2023-11-19T09:44:25;30.48;;;4.43;;
76765;SDS011;65707;52.362;6.588;2023-11-19T09:46:53;23.02;;;3.67;;
76765;SDS011;65707;52.362;6.588;2023-11-19T09:49:21;26.63;;;5.22;;
76765;SDS011;65707;52.362;6.588;2023-11-19T09:51:53;28.38;;;3.85;;
76765;SDS011;65707;52.362;6.588;2023-11-19T09:54:20;24.13;;;3.60;;
76765;SDS011;65707;52.362;6.588;2023-11-19T09:56:48;28.60;;;3.90;;
76765;SDS011;65707;52.362;6.588;2023-11-19T09:59:16;24.30;;;3.45;;
76765;SDS011;65707;52.362;6.588;2023-11-19T10:01:44;33.88;;;4.78;;
76765;SDS011;65707;52.362;6.588;2023-11-19T10:04:14;26.08;;;4.53;;
76765;SDS011;65707;52.362;6.588;2023-11-19T10:06:42;28.23;;;3.63;;
76765;SDS011;65707;52.362;6.588;2023-11-19T10:09:11;25.38;;;4.00;;
76765;SDS011;65707;52.362;6.588;2023-11-19T10:11:40;25.63;;;3.83;;
76765;SDS011;65707;52.362;6.588;2023-11-19T10:14:08;20.60;;;3.28;;
76765;SDS011;65707;52.362;6.588;2023-11-19T10:16:36;20.60;;;3.38;;
76765;SDS011;65707;52.362;6.588;2023-11-19T10:19:04;26.60;;;4.28;;
76765;SDS011;65707;52.362;6.588;2023-11-19T10:21:32;24.00;;;3.53;;
76765;SDS011;65707;52.362;6.588;2023-11-19T10:23:59;25.98;;;4.15;;
76765;SDS011;65707;52.362;6.588;2023-11-19T10:26:26;27.48;;;3.47;;
76765;SDS011;65707;52.362;6.588;2023-11-19T10:28:54;29.15;;;4.10;;
76765;SDS011;65707;52.362;6.588;2023-11-19T10:31:23;29.80;;;4.40;;
76765;SDS011;65707;52.362;6.588;2023-11-19T10:33:51;24.02;;;3.53;;
76765;SDS011;65707;52.362;6.588;2023-11-19T10:36:19;27.67;;;3.47;;
76765;SDS011;65707;52.362;6.588;2023-11-19T10:38:51;25.23;;;4.32;;
76765;SDS011;65707;52.362;6.588;2023-11-19T10:41:28;20.92;;;3.42;;
76765;SDS011;65707;52.362;6.588;2023-11-19T10:43:56;22.67;;;3.80;;
76765;SDS011;65707;52.362;6.588;2023-11-19T10:46:35;25.38;;;4.13;;
76765;SDS011;65707;52.362;6.588;2023-11-19T10:49:04;23.50;;;4.03;;
76765;SDS011;65707;52.362;6.588;2023-11-19T10:51:32;26.20;;;3.65;;
76765;SDS011;65707;52.362;6.588;2023-11-19T10:54:01;24.27;;;3.83;;
76765;SDS011;65707;52.362;6.588;2023-11-19T10:56:30;28.00;;;4.20;;
76765;SDS011;65707;52.362;6.588;2023-11-19T10:58:58;29.08;;;3.70;;
76765;SDS011;65707;52.362;6.588;2023-11-19T11:01:43;24.48;;;3.95;;
76765;SDS011;65707;52.362;6.588;2023-11-19T11:04:12;20.85;;;3.97;;
76765;SDS011;65707;52.362;6.588;2023-11-19T11:06:42;24.25;;;4.10;;
76765;SDS011;65707;52.362;6.588;2023-11-19T11:09:09;26.23;;;4.32;;
76765;SDS011;65707;52.362;6.588;2023-11-19T11:11:38;27.42;;;3.92;;
76765;SDS011;65707;52.362;6.588;2023-11-19T11:14:08;25.70;;;4.00;;
76765;SDS011;65707;52.362;6.588;2023-11-19T11:16:41;24.60;;;3.33;;
76765;SDS011;65707;52.362;6.588;2023-11-19T11:19:09;23.60;;;4.10;;
76765;SDS011;65707;52.362;6.588;2023-11-19T11:21:37;22.25;;;3.63;;
76765;SDS011;65707;52.362;6.588;2023-11-19T11:24:14;24.20;;;4.10;;
76765;SDS011;65707;52.362;6.588;2023-11-19T11:30:33;23.05;;;3.83;;
76765;SDS011;65707;52.362;6.588;2023-11-19T11:33:23;27.40;;;3.90;;
76765;SDS011;65707;52.362;6.588;2023-11-19T11:36:11;24.88;;;3.75;;
76765;SDS011;65707;52.362;6.588;2023-11-19T11:38:45;29.45;;;3.80;;
76765;SDS011;65707;52.362;6.588;2023-11-19T11:41:15;23.58;;;3.83;;
76765;SDS011;65707;52.362;6.588;2023-11-19T11:43:45;25.20;;;3.67;;
76765;SDS011;65707;52.362;6.588;2023-11-19T11:49:26;24.70;;;4.00;;
76765;SDS011;65707;52.362;6.588;2023-11-19T11:52:01;18.42;;;3.42;;
76765;SDS011;65707;52.362;6.588;2023-11-19T11:54:29;20.85;;;3.28;;
76765;SDS011;65707;52.362;6.588;2023-11-19T11:57:03;24.00;;;3.28;;
76765;SDS011;65707;52.362;6.588;2023-11-19T12:02:19;25.92;;;3.97;;
76765;SDS011;65707;52.362;6.588;2023-11-19T12:04:50;27.77;;;3.75;;
76765;SDS011;65707;52.362;6.588;2023-11-19T12:07:19;19.38;;;3.42;;
76765;SDS011;65707;52.362;6.588;2023-11-19T12:09:48;21.85;;;3.17;;
76765;SDS011;65707;52.362;6.588;2023-11-19T12:12:23;23.25;;;3.65;;
76765;SDS011;65707;52.362;6.588;2023-11-19T12:15:00;22.05;;;3.90;;
76765;SDS011;65707;52.362;6.588;2023-11-19T12:17:42;19.85;;;3.35;;
76765;SDS011;65707;52.362;6.588;2023-11-19T12:20:17;28.35;;;3.60;;
76765;SDS011;65707;52.362;6.588;2023-11-19T12:22:45;25.92;;;3.10;;
76765;SDS011;65707;52.362;6.588;2023-11-19T12:25:14;21.50;;;2.90;;
76765;SDS011;65707;52.362;6.588;2023-11-19T12:27:43;22.95;;;3.00;;
76765;SDS011;65707;52.362;6.588;2023-11-19T12:30:11;21.38;;;2.83;;
76765;SDS011;65707;52.362;6.588;2023-11-19T12:32:43;21.70;;;3.00;;
76765;SDS011;65707;52.362;6.588;2023-11-19T12:35:12;25.25;;;3.47;;
76765;SDS011;65707;52.362;6.588;2023-11-19T12:37:44;23.20;;;2.97;;
76765;SDS011;65707;52.362;6.588;2023-11-19T12:40:12;17.75;;;2.47;;
76765;SDS011;65707;52.362;6.588;2023-11-19T12:42:41;26.63;;;3.10;;
76765;SDS011;65707;52.362;6.588;2023-11-19T12:45:08;24.13;;;3.65;;
76765;SDS011;65707;52.362;6.588;2023-11-19T12:47:37;19.48;;;3.10;;
76765;SDS011;65707;52.362;6.588;2023-11-19T12:50:04;22.75;;;3.42;;
76765;SDS011;65707;52.362;6.588;2023-11-19T12:52:34;26.10;;;3.95;;
76765;SDS011;65707;52.362;6.588;2023-11-19T12:55:03;24.35;;;3.53;;
76765;SDS011;65707;52.362;6.588;2023-11-19T12:57:35;26.65;;;3.70;;
76765;SDS011;65707;52.362;6.588;2023-11-19T13:00:06;22.80;;;2.97;;
76765;SDS011;65707;52.362;6.588;2023-11-19T13:02:45;26.30;;;3.78;;
76765;SDS011;65707;52.362;6.588;2023-11-19T13:05:26;18.50;;;2.70;;
76765;SDS011;65707;52.362;6.588;2023-11-19T13:08:02;23.02;;;2.85;;
76765;SDS011;65707;52.362;6.588;2023-11-19T13:10:33;25.02;;;3.42;;
76765;SDS011;65707;52.362;6.588;2023-11-19T13:13:15;24.80;;;3.67;;
76765;SDS011;65707;52.362;6.588;2023-11-19T13:15:42;23.13;;;3.67;;
76765;SDS011;65707;52.362;6.588;2023-11-19T13:18:10;27.50;;;4.05;;
76765;SDS011;65707;52.362;6.588;2023-11-19T13:20:37;27.25;;;3.33;;
76765;SDS011;65707;52.362;6.588;2023-11-19T13:23:04;27.35;;;3.30;;
76765;SDS011;65707;52.362;6.588;2023-11-19T13:25:34;23.17;;;3.47;;
76765;SDS011;65707;52.362;6.588;2023-11-19T13:28:00;23.10;;;3.40;;
76765;SDS011;65707;52.362;6.588;2023-11-19T13:30:27;22.33;;;3.85;;
76765;SDS011;65707;52.362;6.588;2023-11-19T13:32:54;20.92;;;3.10;;
76765;SDS011;65707;52.362;6.588;2023-11-19T13:35:21;18.52;;;3.60;;
76765;SDS011;65707;52.362;6.588;2023-11-19T13:37:48;29.92;;;3.85;;
76765;SDS011;65707;52.362;6.588;2023-11-19T13:40:16;26.30;;;3.70;;
76765;SDS011;65707;52.362;6.588;2023-11-19T13:42:45;29.83;;;3.53;;
76765;SDS011;65707;52.362;6.588;2023-11-19T13:45:12;29.75;;;3.88;;
76765;SDS011;65707;52.362;6.588;2023-11-19T13:47:41;28.42;;;3.53;;
76765;SDS011;65707;52.362;6.588;2023-11-19T13:50:10;29.15;;;4.35;;
76765;SDS011;65707;52.362;6.588;2023-11-19T13:55:09;26.38;;;3.90;;
76765;SDS011;65707;52.362;6.588;2023-11-19T13:57:36;27.40;;;3.85;;
76765;SDS011;65707;52.362;6.588;2023-11-19T14:00:08;31.83;;;3.63;;
76765;SDS011;65707;52.362;6.588;2023-11-19T14:02:38;22.35;;;3.67;;
76765;SDS011;65707;52.362;6.588;2023-11-19T14:05:05;25.83;;;3.35;;
76765;SDS011;65707;52.362;6.588;2023-11-19T14:07:32;26.98;;;3.10;;
76765;SDS011;65707;52.362;6.588;2023-11-19T14:09:59;26.23;;;3.78;;
76765;SDS011;65707;52.362;6.588;2023-11-19T14:12:26;23.95;;;3.38;;
76765;SDS011;65707;52.362;6.588;2023-11-19T14:14:53;26.45;;;3.72;;
76765;SDS011;65707;52.362;6.588;2023-11-19T14:17:21;33.42;;;4.40;;
76765;SDS011;65707;52.362;6.588;2023-11-19T14:19:48;27.08;;;4.93;;
76765;SDS011;65707;52.362;6.588;2023-11-19T14:22:14;24.42;;;3.92;;
76765;SDS011;65707;52.362;6.588;2023-11-19T14:24:41;21.95;;;3.78;;
76765;SDS011;65707;52.362;6.588;2023-11-19T14:27:08;17.42;;;3.10;;
76765;SDS011;65707;52.362;6.588;2023-11-19T14:29:35;26.38;;;4.38;;
76765;SDS011;65707;52.362;6.588;2023-11-19T14:32:02;28.17;;;3.35;;
76765;SDS011;65707;52.362;6.588;2023-11-19T14:34:31;23.27;;;3.42;;
76765;SDS011;65707;52.362;6.588;2023-11-19T14:36:58;26.48;;;3.85;;
76765;SDS011;65707;52.362;6.588;2023-11-19T14:39:25;22.73;;;3.35;;
76765;SDS011;65707;52.362;6.588;2023-11-19T14:41:53;20.45;;;3.25;;
76765;SDS011;65707;52.362;6.588;2023-11-19T14:44:23;28.85;;;3.80;;
76765;SDS011;65707;52.362;6.588;2023-11-19T14:46:49;31.02;;;4.50;;
76765;SDS011;65707;52.362;6.588;2023-11-19T14:49:16;20.40;;;3.20;;
76765;SDS011;65707;52.362;6.588;2023-11-19T14:51:44;22.08;;;3.22;;
76765;SDS011;65707;52.362;6.588;2023-11-19T14:54:10;22.92;;;3.00;;
76765;SDS011;65707;52.362;6.588;2023-11-19T14:56:39;26.35;;;2.75;;